Terminal Aerodrome Forecast
Issued by NWS Sterling, VA

Current Version | Previous Version | Graphics & Text | Print | Product List | Glossary On
Versions: 1 2 3 4 5 6 7 8 9 10 11 12 13 14
735
FTUS41 KLWX 221721
TAFMRB
TAF
KMRB 221721Z 2218/2318 35006KT P6SM FEW050 SCT250
     FM230900 00000KT 5SM BR FEW050 SCT250
     FM231200 01004KT P6SM FEW250=

USA.gov is the U.S. government's official web portal to all federal, state and local government web resources and services.